createdAt,value
2022-07-28T00:00:03.371Z,13.32
2022-07-28T00:01:03.582Z,13.29
2022-07-28T00:02:03.962Z,13.26
2022-07-28T00:03:04.359Z,13.24
2022-07-28T00:04:03.872Z,13.20
2022-07-28T00:05:04.170Z,13.18
2022-07-28T00:06:03.867Z,13.17
2022-07-28T00:07:03.256Z,13.16
2022-07-28T00:08:03.558Z,13.14
2022-07-28T00:09:03.260Z,13.15
2022-07-28T00:10:03.726Z,13.15
2022-07-28T00:11:03.352Z,13.14
2022-07-28T00:12:03.590Z,13.13
2022-07-28T00:13:06.833Z,13.15
2022-07-28T00:14:03.833Z,13.17
2022-07-28T00:15:04.202Z,13.17
2022-07-28T00:16:03.861Z,13.18
2022-07-28T00:17:03.283Z,13.17
2022-07-28T00:18:03.588Z,13.13
2022-07-28T00:19:03.237Z,13.09
2022-07-28T00:20:03.565Z,13.05
2022-07-28T00:21:03.472Z,13.01
2022-07-28T00:22:03.700Z,12.99
2022-07-28T00:23:04.045Z,13.02
2022-07-28T00:24:03.654Z,13.01
2022-07-28T00:25:03.956Z,12.99
2022-07-28T00:26:03.613Z,12.98
2022-07-28T00:27:04.089Z,12.95
2022-07-28T00:28:03.936Z,12.93
2022-07-28T00:29:03.812Z,12.93
2022-07-28T00:30:04.065Z,12.94
2022-07-28T00:31:05.791Z,12.92
2022-07-28T00:32:03.631Z,12.94
2022-07-28T00:33:04.712Z,12.97
2022-07-28T00:34:03.360Z,12.98
2022-07-28T00:35:03.621Z,13.01
2022-07-28T00:36:03.482Z,13.04
2022-07-28T00:37:06.758Z,13.04
2022-07-28T00:38:03.601Z,13.04
2022-07-28T00:39:04.013Z,13.03
2022-07-28T00:40:03.593Z,13.02
2022-07-28T00:41:03.992Z,13.02
2022-07-28T00:42:03.331Z,13.02
2022-07-28T00:43:03.566Z,13.04
2022-07-28T00:44:03.168Z,13.03
2022-07-28T00:45:03.136Z,13.04
2022-07-28T00:46:03.278Z,13.04
2022-07-28T00:47:03.689Z,13.06
2022-07-28T00:48:03.483Z,13.09
2022-07-28T00:49:03.966Z,13.10
2022-07-28T00:50:03.594Z,13.10
2022-07-28T00:51:03.838Z,13.10
2022-07-28T00:52:04.159Z,13.13
2022-07-28T00:53:04.403Z,13.13
2022-07-28T00:54:04.448Z,13.13
2022-07-28T00:55:04.015Z,13.16
2022-07-28T00:56:06.568Z,13.16
2022-07-28T00:57:03.423Z,13.17
2022-07-28T00:58:03.629Z,13.17
2022-07-28T00:59:03.887Z,13.16
2022-07-28T01:00:03.557Z,13.18
2022-07-28T01:01:04.151Z,13.16
2022-07-28T01:02:03.993Z,13.16
2022-07-28T01:03:03.828Z,13.13
2022-07-28T01:04:03.889Z,13.13
2022-07-28T01:05:04.215Z,13.11
2022-07-28T01:06:03.808Z,13.10
2022-07-28T01:07:04.110Z,13.07
2022-07-28T01:08:03.879Z,13.05
2022-07-28T01:09:04.460Z,13.03
2022-07-28T01:10:04.271Z,13.01
2022-07-28T01:11:03.823Z,13.01
2022-07-28T01:12:03.856Z,13.02
2022-07-28T01:13:03.479Z,13.06
2022-07-28T01:14:03.876Z,13.06
2022-07-28T01:15:03.933Z,13.09
2022-07-28T01:16:03.696Z,13.08
2022-07-28T01:17:04.224Z,13.07
2022-07-28T01:18:03.810Z,13.08
2022-07-28T01:19:04.312Z,13.06
2022-07-28T01:20:03.847Z,13.06
2022-07-28T01:21:04.058Z,13.07
2022-07-28T01:22:04.294Z,13.05
2022-07-28T01:23:03.807Z,13.05
2022-07-28T01:24:03.798Z,13.05
2022-07-28T01:25:04.243Z,13.04
2022-07-28T01:26:03.693Z,13.05
2022-07-28T01:27:03.481Z,13.04
2022-07-28T01:28:03.561Z,13.03
2022-07-28T01:29:03.689Z,13.03
2022-07-28T01:30:03.943Z,13.03
2022-07-28T01:31:04.024Z,13.03
2022-07-28T01:32:04.443Z,13.04
2022-07-28T01:33:04.020Z,13.06
2022-07-28T01:34:04.344Z,13.03
2022-07-28T01:35:04.188Z,13.03
2022-07-28T01:36:03.957Z,13.02
2022-07-28T01:37:04.021Z,12.98
2022-07-28T01:38:03.541Z,12.95
2022-07-28T01:39:04.046Z,12.91
2022-07-28T01:40:03.802Z,12.87
2022-07-28T01:41:04.136Z,12.80
2022-07-28T01:42:03.249Z,12.74
2022-07-28T01:43:03.375Z,12.68
2022-07-28T01:44:03.383Z,12.67
2022-07-28T01:45:03.284Z,12.63
2022-07-28T01:46:03.344Z,12.65
2022-07-28T01:47:03.653Z,12.63
2022-07-28T01:48:03.243Z,12.60
2022-07-28T01:49:03.559Z,12.59
2022-07-28T01:50:03.217Z,12.58
2022-07-28T01:51:03.484Z,12.59
2022-07-28T01:52:03.817Z,12.61
2022-07-28T01:53:03.626Z,12.60
2022-07-28T01:54:03.652Z,12.61
2022-07-28T01:55:03.348Z,12.62
2022-07-28T01:56:03.531Z,12.61
2022-07-28T01:57:03.386Z,12.59
2022-07-28T01:58:03.705Z,12.56
2022-07-28T01:59:03.301Z,12.52
2022-07-28T02:00:03.573Z,12.50
2022-07-28T02:01:03.868Z,12.50
2022-07-28T02:02:04.011Z,12.47
2022-07-28T02:03:04.365Z,12.46
2022-07-28T02:04:04.427Z,12.44
2022-07-28T02:05:04.133Z,12.41
2022-07-28T02:06:04.410Z,12.38
2022-07-28T02:07:03.539Z,12.37
2022-07-28T02:08:03.165Z,12.35
2022-07-28T02:09:03.570Z,12.35
2022-07-28T02:10:03.169Z,12.32
2022-07-28T02:11:03.139Z,12.33
2022-07-28T02:12:04.017Z,12.32
2022-07-28T02:13:04.198Z,12.30
2022-07-28T02:14:03.882Z,12.30
2022-07-28T02:15:04.140Z,12.32
2022-07-28T02:16:04.497Z,12.32
2022-07-28T02:17:03.373Z,12.30
2022-07-28T02:18:03.579Z,12.29
2022-07-28T02:19:03.923Z,12.25
2022-07-28T02:20:03.900Z,12.22
2022-07-28T02:21:03.513Z,12.15
2022-07-28T02:22:03.818Z,12.08
2022-07-28T02:23:03.619Z,12.05
2022-07-28T02:24:03.851Z,12.02
2022-07-28T02:25:03.619Z,12.03
2022-07-28T02:26:03.919Z,12.01
2022-07-28T02:27:04.168Z,12.01
2022-07-28T02:28:03.856Z,11.99
2022-07-28T02:29:03.953Z,11.97
2022-07-28T02:30:03.578Z,11.94
2022-07-28T02:31:03.664Z,11.92
2022-07-28T02:32:03.346Z,11.90
2022-07-28T02:33:03.842Z,11.92
2022-07-28T02:34:03.339Z,11.92
2022-07-28T02:35:03.567Z,11.90
2022-07-28T02:36:03.181Z,11.87
2022-07-28T02:37:03.412Z,11.85
2022-07-28T02:38:03.680Z,11.82
2022-07-28T02:39:04.051Z,11.81
2022-07-28T02:40:03.664Z,11.80
2022-07-28T02:41:03.928Z,11.78
2022-07-28T02:42:03.542Z,11.74
2022-07-28T02:43:03.813Z,11.71
2022-07-28T02:44:03.764Z,11.68
2022-07-28T02:45:04.134Z,11.65
2022-07-28T02:46:03.789Z,11.63
2022-07-28T02:47:03.136Z,11.61
2022-07-28T02:48:03.436Z,11.61
2022-07-28T02:49:03.210Z,11.58
2022-07-28T02:50:03.541Z,11.54
2022-07-28T02:51:03.738Z,11.55
2022-07-28T02:52:03.308Z,11.57
2022-07-28T02:53:14.873Z,11.58
2022-07-28T02:54:03.453Z,11.59
2022-07-28T02:55:03.818Z,11.61
2022-07-28T02:56:03.577Z,11.64
2022-07-28T02:57:03.896Z,11.62
2022-07-28T02:58:05.148Z,11.61
2022-07-28T02:59:04.346Z,11.59
2022-07-28T03:00:03.921Z,11.54
2022-07-28T03:01:04.441Z,11.51
2022-07-28T03:02:03.085Z,11.48
2022-07-28T03:03:03.150Z,11.46
2022-07-28T03:04:03.503Z,11.43
2022-07-28T03:05:03.219Z,11.38
2022-07-28T03:06:03.363Z,11.33
2022-07-28T03:07:03.057Z,11.27
2022-07-28T03:08:02.556Z,11.24
2022-07-28T03:09:03.021Z,11.27
2022-07-28T03:10:02.690Z,11.27
2022-07-28T03:11:03.005Z,11.28
2022-07-28T03:12:03.168Z,11.27
2022-07-28T03:13:03.511Z,11.28
2022-07-28T03:14:03.132Z,11.26
2022-07-28T03:15:03.810Z,11.27
2022-07-28T03:16:03.361Z,11.24
2022-07-28T03:17:02.806Z,11.22
2022-07-28T03:18:02.974Z,11.19
2022-07-28T03:19:02.525Z,11.19
2022-07-28T03:20:02.757Z,11.17
2022-07-28T03:21:02.498Z,11.17
2022-07-28T03:22:02.731Z,11.15
2022-07-28T03:23:02.636Z,11.12
2022-07-28T03:24:02.983Z,11.13
2022-07-28T03:25:02.768Z,11.11
2022-07-28T03:26:02.862Z,11.12
2022-07-28T03:27:03.150Z,11.11
2022-07-28T03:28:03.450Z,11.10
2022-07-28T03:29:03.054Z,11.10
2022-07-28T03:30:04.246Z,11.08
2022-07-28T03:31:03.088Z,11.03
2022-07-28T03:32:03.451Z,11.03
2022-07-28T03:33:03.708Z,11.00
2022-07-28T03:34:03.424Z,11.00
2022-07-28T03:35:03.842Z,11.00
2022-07-28T03:36:03.463Z,11.01
2022-07-28T03:37:03.047Z,11.01
2022-07-28T03:38:02.836Z,11.01
2022-07-28T03:39:03.188Z,11.04
2022-07-28T03:40:02.775Z,11.04
2022-07-28T03:41:03.171Z,11.00
2022-07-28T03:42:03.486Z,11.00
2022-07-28T03:43:03.600Z,10.98
2022-07-28T03:44:03.223Z,10.95
2022-07-28T03:45:03.528Z,10.93
2022-07-28T03:46:03.214Z,10.90
2022-07-28T03:47:03.207Z,10.88
2022-07-28T03:48:03.046Z,10.87
2022-07-28T03:49:03.480Z,10.87
2022-07-28T03:50:03.158Z,10.85
2022-07-28T03:51:03.487Z,10.83
2022-07-28T03:52:02.886Z,10.79
2022-07-28T03:53:03.064Z,10.77
2022-07-28T03:54:02.680Z,10.75
2022-07-28T03:55:03.052Z,10.74
2022-07-28T03:56:02.705Z,10.74
2022-07-28T03:57:03.285Z,10.74
2022-07-28T03:58:03.380Z,10.69
2022-07-28T03:59:03.590Z,10.70
2022-07-28T04:00:09.040Z,10.71
2022-07-28T04:01:03.435Z,10.75
2022-07-28T04:02:04.057Z,10.73
2022-07-28T04:03:03.946Z,10.72
2022-07-28T04:04:03.576Z,10.71
2022-07-28T04:05:03.593Z,10.72
2022-07-28T04:06:03.963Z,10.70
2022-07-28T04:07:03.009Z,10.69
2022-07-28T04:08:03.437Z,10.68
2022-07-28T04:09:03.106Z,10.68
2022-07-28T04:10:03.447Z,10.68
2022-07-28T04:11:02.890Z,10.67
2022-07-28T04:12:03.935Z,10.66
2022-07-28T04:13:03.725Z,10.65
2022-07-28T04:14:04.075Z,10.63
2022-07-28T04:15:03.767Z,10.62
2022-07-28T04:16:03.527Z,10.60
2022-07-28T04:17:03.791Z,10.57
2022-07-28T04:18:03.470Z,10.54
2022-07-28T04:19:03.645Z,10.52
2022-07-28T04:20:03.458Z,10.51
2022-07-28T04:21:03.300Z,10.51
2022-07-28T04:22:02.667Z,10.52
2022-07-28T04:23:03.173Z,10.55
2022-07-28T04:24:02.928Z,10.57
2022-07-28T04:25:02.619Z,10.63
2022-07-28T04:26:03.000Z,10.68
2022-07-28T04:27:03.297Z,10.73
2022-07-28T04:28:02.779Z,10.77
2022-07-28T04:29:03.613Z,10.79
2022-07-28T04:30:02.733Z,10.84
2022-07-28T04:31:03.468Z,10.84
2022-07-28T04:32:03.416Z,10.84
2022-07-28T04:33:03.905Z,10.85
2022-07-28T04:34:03.438Z,10.85
2022-07-28T04:35:03.831Z,10.85
2022-07-28T04:36:03.513Z,10.85
2022-07-28T04:37:03.449Z,10.84
2022-07-28T04:38:03.260Z,10.81
2022-07-28T04:39:03.045Z,10.80
2022-07-28T04:40:03.432Z,10.80
2022-07-28T04:41:03.059Z,10.80
2022-07-28T04:42:03.521Z,10.82
2022-07-28T04:43:04.095Z,10.81
2022-07-28T04:44:03.890Z,10.80
2022-07-28T04:45:03.656Z,10.79
2022-07-28T04:46:04.128Z,10.80
2022-07-28T04:47:02.834Z,10.84
2022-07-28T04:48:02.796Z,10.85
2022-07-28T04:49:03.284Z,10.90
2022-07-28T04:50:03.060Z,10.94
2022-07-28T04:51:02.866Z,11.00
2022-07-28T04:52:02.902Z,11.04
2022-07-28T04:53:03.415Z,11.08
2022-07-28T04:54:03.159Z,11.11
2022-07-28T04:55:03.298Z,11.11
2022-07-28T04:56:03.021Z,11.14
2022-07-28T04:57:03.308Z,11.16
2022-07-28T04:58:03.714Z,11.18
2022-07-28T04:59:03.929Z,11.19
2022-07-28T05:00:03.279Z,11.21
2022-07-28T05:01:03.664Z,11.24
2022-07-28T05:02:02.907Z,11.28
2022-07-28T05:03:02.911Z,11.29
2022-07-28T05:04:02.700Z,11.30
2022-07-28T05:05:02.699Z,11.31
2022-07-28T05:06:02.555Z,11.33
2022-07-28T05:07:07.908Z,11.35
2022-07-28T05:08:03.013Z,11.36
2022-07-28T05:09:03.493Z,11.32
2022-07-28T05:10:03.284Z,11.31
2022-07-28T05:11:03.032Z,11.30
2022-07-28T05:12:02.554Z,11.29
2022-07-28T05:13:03.041Z,11.30
2022-07-28T05:14:02.889Z,11.32
2022-07-28T05:15:02.580Z,11.34
2022-07-28T05:16:03.057Z,11.36
2022-07-28T05:17:02.853Z,11.38
2022-07-28T05:18:03.020Z,11.39
2022-07-28T05:19:02.972Z,11.40
2022-07-28T05:20:03.576Z,11.42
2022-07-28T05:21:02.776Z,11.45
2022-07-28T05:22:03.186Z,11.47
2022-07-28T05:23:03.370Z,11.50
2022-07-28T05:24:03.649Z,11.54
2022-07-28T05:25:03.473Z,11.58
2022-07-28T05:26:03.206Z,11.61
2022-07-28T05:27:02.675Z,11.62
2022-07-28T05:28:02.165Z,11.65
2022-07-28T05:29:02.519Z,11.67
2022-07-28T05:30:02.784Z,11.71
2022-07-28T05:31:02.594Z,11.76
2022-07-28T05:32:08.025Z,11.81
2022-07-28T05:33:03.345Z,11.85
2022-07-28T05:34:03.242Z,11.91
2022-07-28T05:35:02.937Z,11.94
2022-07-28T05:36:03.378Z,11.97
2022-07-28T05:37:02.729Z,11.99
2022-07-28T05:38:03.693Z,12.04
2022-07-28T05:39:02.603Z,12.09
2022-07-28T05:40:02.879Z,12.13
2022-07-28T05:41:02.687Z,12.18
2022-07-28T05:42:03.262Z,12.21
2022-07-28T05:43:02.948Z,12.24
2022-07-28T05:44:03.343Z,12.26
2022-07-28T05:45:03.227Z,12.30
2022-07-28T05:46:03.032Z,12.34
2022-07-28T05:47:03.410Z,12.39
2022-07-28T05:48:03.754Z,12.45
2022-07-28T05:49:03.568Z,12.51
2022-07-28T05:50:03.903Z,12.60
2022-07-28T05:51:03.613Z,12.67
2022-07-28T05:52:03.052Z,12.74
2022-07-28T05:53:03.361Z,12.82
2022-07-28T05:54:03.071Z,12.92
2022-07-28T05:55:02.823Z,13.00
2022-07-28T05:56:03.268Z,13.07
2022-07-28T05:57:02.393Z,13.15
2022-07-28T05:58:02.841Z,13.24
2022-07-28T05:59:02.576Z,13.32
2022-07-28T06:00:02.608Z,13.41
2022-07-28T06:01:03.100Z,13.50
2022-07-28T06:02:04.082Z,13.62
2022-07-28T06:03:03.919Z,13.72
2022-07-28T06:04:25.768Z,13.82
2022-07-28T06:05:04.083Z,13.93
2022-07-28T06:06:14.822Z,14.04
2022-07-28T06:07:03.790Z,14.16
2022-07-28T06:08:03.922Z,14.30
2022-07-28T06:09:03.708Z,14.42
2022-07-28T06:10:03.457Z,14.54
2022-07-28T06:11:03.523Z,14.65
2022-07-28T06:12:04.057Z,14.75
2022-07-28T06:13:03.853Z,14.86
2022-07-28T06:14:03.680Z,14.97
2022-07-28T06:15:04.204Z,15.07
2022-07-28T06:16:03.844Z,15.19
2022-07-28T06:17:03.643Z,15.30
2022-07-28T06:18:03.635Z,15.40
2022-07-28T06:19:03.727Z,15.51
2022-07-28T06:20:03.573Z,15.62
2022-07-28T06:21:03.418Z,15.72
2022-07-28T06:22:03.457Z,15.81
2022-07-28T06:23:03.885Z,15.91
2022-07-28T06:24:03.765Z,16.01
2022-07-28T06:25:03.523Z,16.11
2022-07-28T06:26:04.062Z,16.21
2022-07-28T06:27:04.285Z,16.30
2022-07-28T06:28:03.300Z,16.40
2022-07-28T06:29:03.974Z,16.50
2022-07-28T06:30:04.415Z,16.58
2022-07-28T06:31:03.851Z,16.67
2022-07-28T06:32:04.438Z,16.76
2022-07-28T06:33:04.546Z,16.85
2022-07-28T06:34:04.075Z,16.95
2022-07-28T06:35:04.056Z,17.04
2022-07-28T06:36:04.590Z,17.13
2022-07-28T06:37:04.195Z,17.22
2022-07-28T06:38:04.028Z,17.31
2022-07-28T06:39:04.188Z,17.40
2022-07-28T06:40:04.056Z,17.51
2022-07-28T06:41:04.267Z,17.61
2022-07-28T06:42:03.778Z,17.68
2022-07-28T06:43:03.589Z,17.77
2022-07-28T06:44:03.383Z,17.86
2022-07-28T06:45:03.510Z,17.96
2022-07-28T06:46:03.352Z,18.05
2022-07-28T06:47:03.984Z,18.17
2022-07-28T06:48:03.516Z,18.27
2022-07-28T06:49:04.058Z,18.35
2022-07-28T06:50:03.998Z,18.44
2022-07-28T06:51:03.641Z,18.53
2022-07-28T06:52:04.159Z,18.63
2022-07-28T06:53:04.294Z,18.73
2022-07-28T06:54:07.970Z,18.86
2022-07-28T06:55:03.874Z,18.97
2022-07-28T06:56:04.297Z,19.06
2022-07-28T06:57:04.134Z,19.17
2022-07-28T06:58:04.066Z,19.27
2022-07-28T06:59:04.554Z,19.36
2022-07-28T07:00:04.397Z,19.42
2022-07-28T07:01:04.458Z,19.51
2022-07-28T07:02:03.904Z,19.57
2022-07-28T07:03:03.617Z,19.67
2022-07-28T07:04:03.562Z,19.74
2022-07-28T07:05:03.479Z,19.81
2022-07-28T07:06:03.872Z,19.83
2022-07-28T07:07:04.371Z,19.86
2022-07-28T07:08:04.196Z,19.93
2022-07-28T07:09:03.978Z,19.96
2022-07-28T07:10:04.346Z,20.02
2022-07-28T07:11:04.172Z,20.04
2022-07-28T07:12:03.687Z,20.13
2022-07-28T07:13:03.265Z,20.18
2022-07-28T07:14:03.658Z,20.25
2022-07-28T07:15:03.484Z,20.25
2022-07-28T07:16:03.240Z,20.31
2022-07-28T07:17:04.010Z,20.30
2022-07-28T07:18:03.586Z,20.31
2022-07-28T07:19:06.856Z,20.34
2022-07-28T07:20:03.452Z,20.39
2022-07-28T07:21:03.853Z,20.40
2022-07-28T07:22:02.839Z,20.47
2022-07-28T07:23:03.365Z,20.52
2022-07-28T07:24:02.952Z,20.57
2022-07-28T07:25:03.198Z,20.63
2022-07-28T07:26:03.057Z,20.69
2022-07-28T07:27:03.041Z,20.76
2022-07-28T07:28:03.563Z,20.80
2022-07-28T07:29:03.436Z,20.89
2022-07-28T07:30:03.231Z,20.94
2022-07-28T07:31:03.091Z,20.96
2022-07-28T07:32:08.481Z,20.96
2022-07-28T07:33:03.642Z,21.01
2022-07-28T07:34:03.483Z,20.99
2022-07-28T07:35:03.827Z,21.07
2022-07-28T07:36:03.543Z,21.13
2022-07-28T07:37:03.179Z,21.18
2022-07-28T07:38:03.202Z,21.20
2022-07-28T07:39:03.459Z,21.28
2022-07-28T07:40:03.165Z,21.33
2022-07-28T07:41:03.637Z,21.38
2022-07-28T07:42:03.457Z,21.49
2022-07-28T07:43:03.699Z,21.52
2022-07-28T07:44:03.860Z,21.48
2022-07-28T07:45:04.043Z,21.54
2022-07-28T07:46:04.131Z,21.58
2022-07-28T07:47:04.662Z,21.61
2022-07-28T07:48:04.380Z,21.66
2022-07-28T07:49:04.471Z,21.72
2022-07-28T07:50:04.835Z,21.77
2022-07-28T07:51:04.015Z,21.82
2022-07-28T07:52:03.510Z,21.85
2022-07-28T07:53:03.966Z,21.93
2022-07-28T07:54:04.076Z,21.99
2022-07-28T07:55:03.666Z,22.07
2022-07-28T07:56:04.079Z,22.14
2022-07-28T07:57:03.534Z,22.20
2022-07-28T07:58:03.999Z,22.26
2022-07-28T07:59:03.779Z,22.31
2022-07-28T08:00:03.785Z,22.39
2022-07-28T08:01:03.678Z,22.43
2022-07-28T08:02:03.360Z,22.45
2022-07-28T08:03:03.374Z,22.51
2022-07-28T08:04:03.268Z,22.56
2022-07-28T08:05:03.240Z,22.52
2022-07-28T08:06:03.261Z,22.53
2022-07-28T08:07:02.920Z,22.57
2022-07-28T08:08:02.928Z,22.61
2022-07-28T08:09:02.733Z,22.61
2022-07-28T08:10:02.818Z,22.68
2022-07-28T08:11:02.644Z,22.67
2022-07-28T08:12:02.953Z,22.69
2022-07-28T08:13:03.443Z,22.69
2022-07-28T08:14:03.157Z,22.67
2022-07-28T08:15:02.937Z,22.77
2022-07-28T08:16:03.303Z,22.84
2022-07-28T08:17:02.860Z,22.90
2022-07-28T08:18:02.995Z,22.95
2022-07-28T08:19:02.836Z,22.98
2022-07-28T08:20:03.327Z,23.01
2022-07-28T08:21:03.153Z,23.06
2022-07-28T08:22:02.611Z,23.11
2022-07-28T08:23:02.781Z,23.17
2022-07-28T08:24:02.907Z,23.26
2022-07-28T08:25:02.741Z,23.34
2022-07-28T08:26:02.396Z,23.41
2022-07-28T08:27:02.784Z,23.49
2022-07-28T08:28:02.637Z,23.53
2022-07-28T08:29:02.830Z,23.56
2022-07-28T08:30:02.685Z,23.55
2022-07-28T08:31:03.255Z,23.45
2022-07-28T08:32:03.689Z,23.42
2022-07-28T08:33:03.400Z,23.49
2022-07-28T08:34:03.713Z,23.56
2022-07-28T08:35:30.305Z,23.65
2022-07-28T08:36:03.093Z,23.75
2022-07-28T08:37:02.836Z,23.77
2022-07-28T08:38:02.822Z,23.85
2022-07-28T08:39:02.990Z,23.93
2022-07-28T08:40:03.010Z,24.01
2022-07-28T08:41:02.682Z,24.11
2022-07-28T08:42:03.282Z,24.20
2022-07-28T08:43:03.349Z,24.29
2022-07-28T08:44:03.142Z,24.32
2022-07-28T08:45:03.086Z,24.32
2022-07-28T08:46:03.626Z,24.34
2022-07-28T08:47:03.792Z,24.36
2022-07-28T08:48:11.221Z,24.43
2022-07-28T08:49:04.119Z,24.51
2022-07-28T08:50:03.883Z,24.46
2022-07-28T08:51:03.615Z,24.51
2022-07-28T08:52:03.143Z,24.53
2022-07-28T08:53:02.810Z,24.59
2022-07-28T08:54:03.025Z,24.57
2022-07-28T08:55:02.973Z,24.59
2022-07-28T08:56:02.927Z,24.69
2022-07-28T08:57:03.243Z,24.75
2022-07-28T08:58:02.877Z,24.77
2022-07-28T08:59:03.270Z,24.82
2022-07-28T09:00:03.295Z,24.91
2022-07-28T09:01:03.389Z,24.99
2022-07-28T09:02:03.957Z,25.06
2022-07-28T09:03:03.832Z,25.14
2022-07-28T09:04:03.687Z,25.13
2022-07-28T09:05:04.017Z,25.11
2022-07-28T09:06:03.736Z,25.13
2022-07-28T09:07:03.968Z,25.17
2022-07-28T09:08:04.160Z,25.24
2022-07-28T09:09:03.968Z,25.29
2022-07-28T09:10:04.176Z,25.36
2022-07-28T09:11:03.666Z,25.43
2022-07-28T09:12:03.494Z,25.41
2022-07-28T09:13:03.305Z,25.45
2022-07-28T09:14:03.105Z,25.45
2022-07-28T09:15:03.573Z,25.47
2022-07-28T09:16:03.422Z,25.47
2022-07-28T09:17:05.346Z,25.45
2022-07-28T09:18:03.498Z,25.51
2022-07-28T09:19:03.989Z,25.56
2022-07-28T09:20:08.844Z,25.62
2022-07-28T09:21:03.570Z,25.69
2022-07-28T09:22:03.390Z,25.76
2022-07-28T09:23:03.176Z,25.80
2022-07-28T09:24:03.590Z,25.87
2022-07-28T09:25:03.450Z,25.91
2022-07-28T09:26:05.880Z,25.88
2022-07-28T09:27:03.461Z,25.93
2022-07-28T09:28:03.390Z,26.01
2022-07-28T09:29:03.136Z,26.04
2022-07-28T09:30:03.548Z,26.08
2022-07-28T09:31:03.336Z,26.12
2022-07-28T09:32:03.911Z,26.10
2022-07-28T09:33:04.026Z,26.06
2022-07-28T09:34:03.831Z,25.98
2022-07-28T09:35:03.428Z,26.02
2022-07-28T09:36:03.768Z,26.01
2022-07-28T09:37:04.120Z,26.05
2022-07-28T09:38:04.107Z,26.01
2022-07-28T09:39:04.051Z,26.05
2022-07-28T09:40:04.163Z,26.07
2022-07-28T09:41:04.002Z,26.11
2022-07-28T09:42:04.260Z,26.13
2022-07-28T09:43:03.878Z,26.16
2022-07-28T09:44:04.450Z,26.20
2022-07-28T09:45:21.894Z,26.25
2022-07-28T09:46:04.286Z,26.28
2022-07-28T09:47:04.095Z,26.37
2022-07-28T09:48:03.606Z,26.43
2022-07-28T09:49:03.702Z,26.52
2022-07-28T09:50:03.747Z,26.57
2022-07-28T09:51:03.638Z,26.68
2022-07-28T09:52:03.882Z,26.73
2022-07-28T09:53:03.637Z,26.78
2022-07-28T09:54:03.828Z,26.74
2022-07-28T09:55:03.654Z,26.66
2022-07-28T09:56:04.059Z,26.62
2022-07-28T09:57:04.560Z,26.64
2022-07-28T09:58:04.377Z,26.71
2022-07-28T09:59:04.147Z,26.77
2022-07-28T10:00:04.122Z,26.82
2022-07-28T10:01:04.234Z,26.90
2022-07-28T10:02:03.789Z,26.95
2022-07-28T10:03:03.722Z,27.05
2022-07-28T10:04:03.476Z,27.12
2022-07-28T10:05:03.267Z,27.17
2022-07-28T10:06:03.829Z,27.22
2022-07-28T10:07:03.323Z,27.25
2022-07-28T10:08:02.897Z,27.34
2022-07-28T10:09:03.277Z,27.38
2022-07-28T10:10:03.005Z,27.40
2022-07-28T10:11:02.824Z,27.43
2022-07-28T10:12:04.010Z,27.48
2022-07-28T10:13:03.839Z,27.48
2022-07-28T10:14:03.634Z,27.41
2022-07-28T10:15:03.633Z,27.41
2022-07-28T10:16:03.491Z,27.47
2022-07-28T10:17:06.244Z,27.43
2022-07-28T10:18:03.394Z,27.41
2022-07-28T10:19:03.220Z,27.46
2022-07-28T10:20:03.018Z,27.51
2022-07-28T10:21:03.366Z,27.54
2022-07-28T10:22:03.170Z,27.57
2022-07-28T10:23:03.599Z,27.57
2022-07-28T10:24:03.403Z,27.55
2022-07-28T10:25:03.196Z,27.53
2022-07-28T10:26:03.612Z,27.59
2022-07-28T10:27:03.463Z,27.62
2022-07-28T10:28:03.692Z,27.48
2022-07-28T10:29:04.098Z,27.47
2022-07-28T10:30:03.793Z,27.44
2022-07-28T10:31:03.776Z,27.49
2022-07-28T10:32:03.583Z,27.52
2022-07-28T10:33:04.016Z,27.48
2022-07-28T10:34:04.017Z,27.51
2022-07-28T10:35:03.832Z,27.53
2022-07-28T10:36:04.180Z,27.53
2022-07-28T10:37:03.888Z,27.41
2022-07-28T10:38:03.393Z,27.33
2022-07-28T10:39:03.372Z,27.33
2022-07-28T10:40:07.811Z,27.34
2022-07-28T10:41:03.119Z,27.39
2022-07-28T10:42:03.447Z,27.43
2022-07-28T10:43:03.255Z,27.41
2022-07-28T10:44:03.322Z,27.37
2022-07-28T10:45:03.559Z,27.34
2022-07-28T10:46:05.979Z,27.31
2022-07-28T10:47:03.567Z,27.36
2022-07-28T10:48:03.985Z,27.42
2022-07-28T10:49:03.974Z,27.29
2022-07-28T10:50:03.648Z,27.28
2022-07-28T10:51:03.569Z,27.37
2022-07-28T10:52:06.657Z,27.44
2022-07-28T10:53:04.235Z,27.54
2022-07-28T10:54:04.157Z,27.63
2022-07-28T10:55:03.599Z,27.70
2022-07-28T10:56:04.068Z,27.78
2022-07-28T10:57:04.836Z,27.81
2022-07-28T10:58:11.472Z,27.82
2022-07-28T10:59:05.000Z,27.87
2022-07-28T11:00:12.705Z,27.73
2022-07-28T11:01:06.260Z,27.78
2022-07-28T11:02:03.353Z,27.83
2022-07-28T11:03:13.515Z,27.84
2022-07-28T11:04:02.400Z,27.90
2022-07-28T11:05:02.876Z,27.93
2022-07-28T11:06:02.600Z,27.98
2022-07-28T11:07:02.970Z,27.94
2022-07-28T11:08:03.492Z,27.90
2022-07-28T11:09:03.391Z,27.94
2022-07-28T11:10:03.535Z,28.01
2022-07-28T11:11:09.127Z,28.02
2022-07-28T11:12:03.054Z,28.08
2022-07-28T11:13:04.004Z,28.16
2022-07-28T11:14:03.057Z,28.20
2022-07-28T11:15:15.802Z,28.17
2022-07-28T11:16:03.228Z,28.25
2022-07-28T11:17:03.755Z,28.20
2022-07-28T11:18:03.111Z,28.27
2022-07-28T11:19:04.655Z,28.24
2022-07-28T11:20:30.176Z,28.28
2022-07-28T11:21:03.134Z,28.35
2022-07-28T11:22:02.977Z,28.39
2022-07-28T11:23:03.303Z,28.34
2022-07-28T11:24:03.056Z,28.36
2022-07-28T11:25:17.998Z,28.41
2022-07-28T11:26:03.136Z,28.47
2022-07-28T11:27:04.265Z,28.41
2022-07-28T11:28:03.372Z,28.45
2022-07-28T11:29:03.746Z,28.55
2022-07-28T11:30:03.579Z,28.65
2022-07-28T11:31:03.511Z,28.76
2022-07-28T11:32:03.281Z,28.72
2022-07-28T11:33:03.577Z,28.76
2022-07-28T11:34:03.244Z,28.77
2022-07-28T11:35:03.774Z,28.83
2022-07-28T11:36:03.481Z,28.81
2022-07-28T11:37:03.789Z,28.82
2022-07-28T11:38:03.716Z,28.92
2022-07-28T11:39:02.885Z,28.99
2022-07-28T11:40:03.145Z,29.06
2022-07-28T11:41:03.080Z,29.15
2022-07-28T11:42:03.173Z,29.23
2022-07-28T11:43:03.684Z,29.28
2022-07-28T11:44:03.534Z,29.38
2022-07-28T11:45:03.600Z,29.31
2022-07-28T11:46:03.398Z,29.30
2022-07-28T11:47:03.411Z,29.25
2022-07-28T11:48:03.917Z,29.31
2022-07-28T11:49:03.696Z,29.34
2022-07-28T11:50:03.520Z,29.39
2022-07-28T11:51:04.015Z,29.38
2022-07-28T11:52:03.835Z,29.20
2022-07-28T11:53:04.301Z,29.17
2022-07-28T11:54:04.341Z,29.21
2022-07-28T11:55:03.902Z,29.21
2022-07-28T11:56:04.219Z,29.18
2022-07-28T11:57:03.917Z,29.23
2022-07-28T11:58:02.983Z,29.30
2022-07-28T11:59:03.523Z,29.39
2022-07-28T12:00:03.480Z,29.46
2022-07-28T12:01:03.276Z,29.52
2022-07-28T12:02:03.020Z,29.61
2022-07-28T12:03:03.884Z,29.70
2022-07-28T12:04:03.442Z,29.78
2022-07-28T12:05:04.003Z,29.87
2022-07-28T12:06:03.885Z,29.98
2022-07-28T12:07:03.679Z,30.07
2022-07-28T12:08:04.052Z,30.17
2022-07-28T12:09:03.930Z,30.25
2022-07-28T12:10:03.510Z,30.34
2022-07-28T12:11:03.716Z,30.42
2022-07-28T12:12:04.186Z,30.53
2022-07-28T12:13:03.019Z,30.63
2022-07-28T12:14:03.476Z,30.65
2022-07-28T12:15:06.842Z,30.74
2022-07-28T12:16:03.687Z,30.80
2022-07-28T12:17:03.401Z,30.91
2022-07-28T12:18:03.838Z,31.00
2022-07-28T12:19:03.429Z,31.09
2022-07-28T12:20:03.951Z,31.17
2022-07-28T12:21:05.383Z,31.20
2022-07-28T12:22:03.784Z,31.24
2022-07-28T12:23:04.115Z,31.29
2022-07-28T12:24:04.002Z,31.36
2022-07-28T12:25:03.684Z,31.43
2022-07-28T12:26:04.229Z,31.52
2022-07-28T12:27:04.103Z,31.61
2022-07-28T12:28:04.204Z,31.62
2022-07-28T12:29:04.173Z,31.63
2022-07-28T12:30:04.528Z,31.62
2022-07-28T12:31:04.399Z,31.62
2022-07-28T12:32:04.283Z,31.67
2022-07-28T12:33:04.498Z,31.71
2022-07-28T12:34:04.500Z,31.76
2022-07-28T12:35:04.403Z,31.78
2022-07-28T12:36:04.196Z,31.82
2022-07-28T12:37:04.643Z,31.80
2022-07-28T12:38:03.542Z,31.78
2022-07-28T12:39:03.584Z,31.73
2022-07-28T12:40:03.961Z,31.66
2022-07-28T12:41:04.090Z,31.56
2022-07-28T12:42:03.865Z,31.46
2022-07-28T12:43:03.535Z,31.35
2022-07-28T12:44:05.794Z,31.30
2022-07-28T12:45:04.032Z,31.12
2022-07-28T12:46:03.928Z,31.05
2022-07-28T12:47:04.165Z,30.96
2022-07-28T12:48:04.249Z,30.92
2022-07-28T12:49:04.219Z,30.87
2022-07-28T12:50:07.046Z,30.82
2022-07-28T12:51:03.908Z,30.82
2022-07-28T12:52:04.531Z,30.73